Aérodrome :
LOGIN :

S'inscrire | Disclaimer

   EN    FR    IT 

 










Légende :    VFR   VFR Marginal   IFR   IFR Intensif   IFR Très Intensif
Visi : 
Plafond : 
>= 8 km
>= 3000ft
5 à 8 km
1000 à 3000 ft
1500m à 5 km
500 à 1000 ft
800 à 1500m
200 à 500 ft
< 800m
< 200 ft
Symboles :   Orages  Brouillard  Fortes neiges  Fortes précipitations  Vent > 20 kt
SIGMETs :   Divers  Orages  Givrage  Turbulence  Onde Orograph.  Cendres Volcan.







- Altitude de l'aérodrome : 90 ft
- Code IATA : NTE
- Voir les cartes d'approche


LFRS - Nantes

DERNIER METAR :
  • 270600Z AUTO 16003KT CAVOK 07/06 Q1009 NOSIG

METARs EXPIRÉS :
  • 270530Z AUTO 19003KT CAVOK 07/06 Q1009 NOSIG
  • 270500Z AUTO 18004KT CAVOK 06/06 Q1009 NOSIG
  • 270430Z AUTO 16005KT 130V200 CAVOK 06/06 Q1010 NOSIG
  • 270400Z AUTO 13006KT CAVOK 06/06 Q1010 NOSIG
  • 270330Z AUTO 14003KT CAVOK 06/05 Q1010 NOSIG

TAF TAF LFRS
Valide du 27 à 06h jusqu'au 28 à 12h UTC


270500Z 2706/2812 16006KT CAVOK
BECMG 2708/2710 23015G25KT
TEMPO 2708/2711 -RA BKN014
TEMPO 2711/2718 23020G35KT
TEMPO 2714/2808 4000 -SHRA BKN030TCU
BECMG 2721/2724 22008KT
ATIS : +33 2 40 05 12 74
Pas de NOTAMs connus pour ce terrain.
1 SIGMET publié pour la FIR Brest (LFRR) :
 
Turbulence forte
LFRR SIGMET 1 VALID 270400/270800 LFPW
LFRR BREST FIR/UIR SEV TURB FCST WI N4600 W00800 - N4815 W00800 - N4815 W00615 - N4600 W00630 - N4600 W00800 SFC/FL060 MOV E 20KT NC=



MET'MAP, la Météo Aéronautique d'un coup d'oeil ! - Copyright ORBIFLY Décembre 2007 - Disclaimer

ORBIFLY MET'MAP TEAM :

Programmation & Développement : Alexandra Zaïnal
Conception & Développement : Baudouin d'Aumeries
Co-Programmation & Développement : Marc-Olivier Méhu
Soutien technique & logistique : Manuel Goepfert

Contact : metmap@orbifly.com




SOURCES & CREDITS :

   NOAA